sensor_id;sensor_type;location;lat;lon;timestamp;temperature;humidity
68248;SHT30;55064;49.636;12.164;2023-10-08T00:08:31;14.60;78.33
68248;SHT30;55064;49.636;12.164;2023-10-08T00:11:04;14.60;78.24
68248;SHT30;55064;49.636;12.164;2023-10-08T00:27:27;14.58;78.29
68248;SHT30;55064;49.636;12.164;2023-10-08T00:30:22;14.61;78.13
68248;SHT30;55064;49.636;12.164;2023-10-08T00:33:04;14.57;78.09
68248;SHT30;55064;49.636;12.164;2023-10-08T00:36:03;14.61;77.92
68248;SHT30;55064;49.636;12.164;2023-10-08T00:39:05;14.63;77.86
68248;SHT30;55064;49.636;12.164;2023-10-08T00:45:00;14.63;78.02
68248;SHT30;55064;49.636;12.164;2023-10-08T00:47:50;14.58;78.16
68248;SHT30;55064;49.636;12.164;2023-10-08T00:53:42;14.61;78.11
68248;SHT30;55064;49.636;12.164;2023-10-08T00:56:17;14.60;78.12
68248;SHT30;55064;49.636;12.164;2023-10-08T01:05:54;14.56;78.56
68248;SHT30;55064;49.636;12.164;2023-10-08T01:11:41;14.52;78.52
68248;SHT30;55064;49.636;12.164;2023-10-08T01:17:36;14.57;78.39
68248;SHT30;55064;49.636;12.164;2023-10-08T01:27:08;14.54;78.58
68248;SHT30;55064;49.636;12.164;2023-10-08T01:30:02;14.60;78.39
68248;SHT30;55064;49.636;12.164;2023-10-08T01:36:04;14.63;78.41
68248;SHT30;55064;49.636;12.164;2023-10-08T01:38:31;14.64;78.24
68248;SHT30;55064;49.636;12.164;2023-10-08T01:41:13;14.65;78.30
68248;SHT30;55064;49.636;12.164;2023-10-08T01:44:09;14.67;78.34
68248;SHT30;55064;49.636;12.164;2023-10-08T01:49:57;14.69;78.25
68248;SHT30;55064;49.636;12.164;2023-10-08T01:52:50;14.74;78.13
68248;SHT30;55064;49.636;12.164;2023-10-08T01:58:57;14.69;78.32
68248;SHT30;55064;49.636;12.164;2023-10-08T02:01:29;14.69;78.31
68248;SHT30;55064;49.636;12.164;2023-10-08T02:04:01;14.72;78.26
68248;SHT30;55064;49.636;12.164;2023-10-08T02:09:52;14.68;78.46
68248;SHT30;55064;49.636;12.164;2023-10-08T02:12:25;14.65;78.64
68248;SHT30;55064;49.636;12.164;2023-10-08T02:14:51;14.63;78.81
68248;SHT30;55064;49.636;12.164;2023-10-08T02:17:29;14.61;78.91
68248;SHT30;55064;49.636;12.164;2023-10-08T02:23:13;14.57;79.16
68248;SHT30;55064;49.636;12.164;2023-10-08T02:35:51;14.61;79.11
68248;SHT30;55064;49.636;12.164;2023-10-08T02:45:02;14.65;78.93
68248;SHT30;55064;49.636;12.164;2023-10-08T02:47:59;14.67;78.84
68248;SHT30;55064;49.636;12.164;2023-10-08T02:50:35;14.67;78.86
68248;SHT30;55064;49.636;12.164;2023-10-08T02:56:29;14.68;78.86
68248;SHT30;55064;49.636;12.164;2023-10-08T03:05:48;14.76;78.51
68248;SHT30;55064;49.636;12.164;2023-10-08T03:18:05;14.75;78.68
68248;SHT30;55064;49.636;12.164;2023-10-08T03:21:15;14.75;78.84
68248;SHT30;55064;49.636;12.164;2023-10-08T03:24:28;14.69;79.04
68248;SHT30;55064;49.636;12.164;2023-10-08T03:30:15;14.69;78.99
68248;SHT30;55064;49.636;12.164;2023-10-08T03:32:43;14.67;79.26
68248;SHT30;55064;49.636;12.164;2023-10-08T03:35:25;14.65;79.38
68248;SHT30;55064;49.636;12.164;2023-10-08T03:37:55;14.67;79.31
68248;SHT30;55064;49.636;12.164;2023-10-08T03:40:42;14.67;79.37
68248;SHT30;55064;49.636;12.164;2023-10-08T03:43:08;14.67;79.72
68248;SHT30;55064;49.636;12.164;2023-10-08T03:46:08;14.69;79.44
68248;SHT30;55064;49.636;12.164;2023-10-08T03:52:02;14.69;79.56
68248;SHT30;55064;49.636;12.164;2023-10-08T03:54:51;14.67;79.93
68248;SHT30;55064;49.636;12.164;2023-10-08T03:57:49;14.65;79.93
68248;SHT30;55064;49.636;12.164;2023-10-08T04:00:43;14.67;79.96
68248;SHT30;55064;49.636;12.164;2023-10-08T04:03:37;14.65;79.98
68248;SHT30;55064;49.636;12.164;2023-10-08T04:09:39;14.75;79.63
68248;SHT30;55064;49.636;12.164;2023-10-08T04:28:55;14.79;79.91
68248;SHT30;55064;49.636;12.164;2023-10-08T04:31:36;14.72;80.14
68248;SHT30;55064;49.636;12.164;2023-10-08T04:40:49;14.72;80.36
68248;SHT30;55064;49.636;12.164;2023-10-08T04:47:13;14.79;80.28
68248;SHT30;55064;49.636;12.164;2023-10-08T04:50:03;14.78;80.25
68248;SHT30;55064;49.636;12.164;2023-10-08T04:53:01;14.81;80.25
68248;SHT30;55064;49.636;12.164;2023-10-08T04:59:22;14.78;80.56
68248;SHT30;55064;49.636;12.164;2023-10-08T05:01:48;14.74;80.83
68248;SHT30;55064;49.636;12.164;2023-10-08T05:17:26;14.74;81.01
68248;SHT30;55064;49.636;12.164;2023-10-08T05:23:21;14.72;81.10
68248;SHT30;55064;49.636;12.164;2023-10-08T05:29:15;14.71;81.21
68248;SHT30;55064;49.636;12.164;2023-10-08T05:32:01;14.72;81.34
68248;SHT30;55064;49.636;12.164;2023-10-08T05:41:28;14.65;81.74
68248;SHT30;55064;49.636;12.164;2023-10-08T05:50:45;14.63;82.12
68248;SHT30;55064;49.636;12.164;2023-10-08T05:56:45;14.63;82.03
68248;SHT30;55064;49.636;12.164;2023-10-08T06:06:14;14.65;82.59
68248;SHT30;55064;49.636;12.164;2023-10-08T06:08:57;14.67;82.53
68248;SHT30;55064;49.636;12.164;2023-10-08T06:15:15;14.67;82.94
68248;SHT30;55064;49.636;12.164;2023-10-08T06:17:54;14.68;83.07
68248;SHT30;55064;49.636;12.164;2023-10-08T06:26:56;14.71;83.25
68248;SHT30;55064;49.636;12.164;2023-10-08T06:35:49;14.72;83.44
68248;SHT30;55064;49.636;12.164;2023-10-08T06:38:34;14.78;83.35
68248;SHT30;55064;49.636;12.164;2023-10-08T06:41:17;14.81;83.51
68248;SHT30;55064;49.636;12.164;2023-10-08T06:50:39;14.93;83.19
68248;SHT30;55064;49.636;12.164;2023-10-08T06:56:27;15.04;82.72
68248;SHT30;55064;49.636;12.164;2023-10-08T06:59:01;15.03;82.75
68248;SHT30;55064;49.636;12.164;2023-10-08T07:01:36;15.04;82.82
68248;SHT30;55064;49.636;12.164;2023-10-08T07:04:27;15.06;82.77
68248;SHT30;55064;49.636;12.164;2023-10-08T07:13:39;15.13;82.67
68248;SHT30;55064;49.636;12.164;2023-10-08T07:16:09;15.18;82.61
68248;SHT30;55064;49.636;12.164;2023-10-08T07:22:04;15.22;82.91
68248;SHT30;55064;49.636;12.164;2023-10-08T07:24:43;15.27;82.47
68248;SHT30;55064;49.636;12.164;2023-10-08T07:27:30;15.26;82.97
68248;SHT30;55064;49.636;12.164;2023-10-08T07:33:21;15.30;83.43
68248;SHT30;55064;49.636;12.164;2023-10-08T07:36:03;15.27;83.57
68248;SHT30;55064;49.636;12.164;2023-10-08T07:38:42;15.33;84.02
68248;SHT30;55064;49.636;12.164;2023-10-08T07:44:28;15.44;83.79
68248;SHT30;55064;49.636;12.164;2023-10-08T07:47:00;15.44;83.93
68248;SHT30;55064;49.636;12.164;2023-10-08T07:56:10;15.57;83.47
68248;SHT30;55064;49.636;12.164;2023-10-08T07:59:10;15.58;83.09
68248;SHT30;55064;49.636;12.164;2023-10-08T08:01:46;15.57;83.12
68248;SHT30;55064;49.636;12.164;2023-10-08T08:07:33;15.55;82.89
68248;SHT30;55064;49.636;12.164;2023-10-08T08:13:20;15.59;82.96
68248;SHT30;55064;49.636;12.164;2023-10-08T08:29:06;15.61;82.48
68248;SHT30;55064;49.636;12.164;2023-10-08T08:32:11;15.67;82.35
68248;SHT30;55064;49.636;12.164;2023-10-08T08:34:44;15.74;82.04
68248;SHT30;55064;49.636;12.164;2023-10-08T08:37:11;15.81;81.56
68248;SHT30;55064;49.636;12.164;2023-10-08T08:39:44;15.88;81.45
68248;SHT30;55064;49.636;12.164;2023-10-08T08:42:35;15.92;81.45
68248;SHT30;55064;49.636;12.164;2023-10-08T08:51:45;15.89;82.65
68248;SHT30;55064;49.636;12.164;2023-10-08T08:57:39;15.89;82.76
68248;SHT30;55064;49.636;12.164;2023-10-08T09:03:07;15.98;82.82
68248;SHT30;55064;49.636;12.164;2023-10-08T09:05:35;16.03;82.62
68248;SHT30;55064;49.636;12.164;2023-10-08T09:08:03;16.03;82.28
68248;SHT30;55064;49.636;12.164;2023-10-08T09:10:31;16.12;82.13
68248;SHT30;55064;49.636;12.164;2023-10-08T09:13:03;16.12;81.90
68248;SHT30;55064;49.636;12.164;2023-10-08T09:15:31;16.16;82.02
68248;SHT30;55064;49.636;12.164;2023-10-08T09:18:00;16.15;81.76
68248;SHT30;55064;49.636;12.164;2023-10-08T09:20:36;16.15;82.03
68248;SHT30;55064;49.636;12.164;2023-10-08T09:23:09;16.15;81.97
68248;SHT30;55064;49.636;12.164;2023-10-08T09:25:48;16.10;82.07
68248;SHT30;55064;49.636;12.164;2023-10-08T09:28:17;16.17;81.82
68248;SHT30;55064;49.636;12.164;2023-10-08T09:30:43;16.26;81.95
68248;SHT30;55064;49.636;12.164;2023-10-08T09:33:12;16.27;81.92
68248;SHT30;55064;49.636;12.164;2023-10-08T09:35:37;16.27;81.70
68248;SHT30;55064;49.636;12.164;2023-10-08T09:38:04;16.29;81.66
68248;SHT30;55064;49.636;12.164;2023-10-08T09:40:30;16.27;81.72
68248;SHT30;55064;49.636;12.164;2023-10-08T09:42:55;16.33;81.66
68248;SHT30;55064;49.636;12.164;2023-10-08T09:45:22;16.33;81.65
68248;SHT30;55064;49.636;12.164;2023-10-08T09:47:54;16.30;81.52
68248;SHT30;55064;49.636;12.164;2023-10-08T09:50:33;16.36;81.63
68248;SHT30;55064;49.636;12.164;2023-10-08T09:53:12;16.30;81.90
68248;SHT30;55064;49.636;12.164;2023-10-08T09:55:56;16.29;81.72
68248;SHT30;55064;49.636;12.164;2023-10-08T09:58:26;16.24;82.03
68248;SHT30;55064;49.636;12.164;2023-10-08T10:00:55;16.29;82.51
68248;SHT30;55064;49.636;12.164;2023-10-08T10:03:23;16.34;82.53
68248;SHT30;55064;49.636;12.164;2023-10-08T10:05:52;16.30;82.58
68248;SHT30;55064;49.636;12.164;2023-10-08T10:08:18;16.27;82.68
68248;SHT30;55064;49.636;12.164;2023-10-08T10:10:57;16.24;82.98
68248;SHT30;55064;49.636;12.164;2023-10-08T10:13:28;16.20;83.39
68248;SHT30;55064;49.636;12.164;2023-10-08T10:15:57;15.89;82.27
68248;SHT30;55064;49.636;12.164;2023-10-08T10:21:24;15.10;84.22
68248;SHT30;55064;49.636;12.164;2023-10-08T10:23:47;14.84;84.69
68248;SHT30;55064;49.636;12.164;2023-10-08T10:26:30;14.63;84.87
68248;SHT30;55064;49.636;12.164;2023-10-08T10:31:43;14.23;84.69
68248;SHT30;55064;49.636;12.164;2023-10-08T10:34:28;14.13;84.72
68248;SHT30;55064;49.636;12.164;2023-10-08T10:36:58;14.06;84.14
68248;SHT30;55064;49.636;12.164;2023-10-08T10:39:25;13.93;84.02
68248;SHT30;55064;49.636;12.164;2023-10-08T10:42:02;13.86;84.26
68248;SHT30;55064;49.636;12.164;2023-10-08T10:44:32;13.78;84.74
68248;SHT30;55064;49.636;12.164;2023-10-08T10:47:02;13.69;83.62
68248;SHT30;55064;49.636;12.164;2023-10-08T10:49:44;13.51;82.57
68248;SHT30;55064;49.636;12.164;2023-10-08T10:52:26;13.57;82.93
68248;SHT30;55064;49.636;12.164;2023-10-08T10:55:12;13.57;82.84
68248;SHT30;55064;49.636;12.164;2023-10-08T10:57:42;13.54;83.03
68248;SHT30;55064;49.636;12.164;2023-10-08T11:00:11;13.45;82.96
68248;SHT30;55064;49.636;12.164;2023-10-08T11:03:02;13.41;83.18
68248;SHT30;55064;49.636;12.164;2023-10-08T11:05:33;13.38;83.46
68248;SHT30;55064;49.636;12.164;2023-10-08T11:08:03;13.27;83.07
68248;SHT30;55064;49.636;12.164;2023-10-08T11:10:33;13.27;83.14
68248;SHT30;55064;49.636;12.164;2023-10-08T11:13:12;13.27;83.51
68248;SHT30;55064;49.636;12.164;2023-10-08T11:15:42;13.31;83.53
68248;SHT30;55064;49.636;12.164;2023-10-08T11:18:09;13.31;83.46
68248;SHT30;55064;49.636;12.164;2023-10-08T11:20:34;13.31;83.17
68248;SHT30;55064;49.636;12.164;2023-10-08T11:23:06;13.27;83.15
68248;SHT30;55064;49.636;12.164;2023-10-08T11:26:00;13.21;83.25
68248;SHT30;55064;49.636;12.164;2023-10-08T11:28:44;13.28;83.15
68248;SHT30;55064;49.636;12.164;2023-10-08T11:31:14;13.34;82.79
68248;SHT30;55064;49.636;12.164;2023-10-08T11:33:44;13.38;83.15
68248;SHT30;55064;49.636;12.164;2023-10-08T11:36:22;13.43;82.98
68248;SHT30;55064;49.636;12.164;2023-10-08T11:39:13;13.44;82.86
68248;SHT30;55064;49.636;12.164;2023-10-08T11:42:00;13.48;82.55
68248;SHT30;55064;49.636;12.164;2023-10-08T11:44:32;13.41;82.82
68248;SHT30;55064;49.636;12.164;2023-10-08T11:47:01;13.41;82.67
68248;SHT30;55064;49.636;12.164;2023-10-08T11:49:39;13.44;82.96
68248;SHT30;55064;49.636;12.164;2023-10-08T11:52:12;13.44;83.36
68248;SHT30;55064;49.636;12.164;2023-10-08T11:54:41;13.38;83.58
68248;SHT30;55064;49.636;12.164;2023-10-08T11:57:09;13.38;84.09
68248;SHT30;55064;49.636;12.164;2023-10-08T11:59:36;13.27;85.57
68248;SHT30;55064;49.636;12.164;2023-10-08T12:02:05;13.26;86.16
68248;SHT30;55064;49.636;12.164;2023-10-08T12:04:31;13.23;86.31
68248;SHT30;55064;49.636;12.164;2023-10-08T12:06:56;13.23;86.99
68248;SHT30;55064;49.636;12.164;2023-10-08T12:09:24;13.16;87.70
68248;SHT30;55064;49.636;12.164;2023-10-08T12:11:53;13.14;88.83
68248;SHT30;55064;49.636;12.164;2023-10-08T12:14:18;13.04;88.66
68248;SHT30;55064;49.636;12.164;2023-10-08T12:16:44;13.06;89.00
68248;SHT30;55064;49.636;12.164;2023-10-08T12:19:11;13.02;89.26
68248;SHT30;55064;49.636;12.164;2023-10-08T12:21:45;13.03;89.66
68248;SHT30;55064;49.636;12.164;2023-10-08T12:24:14;12.97;89.82
68248;SHT30;55064;49.636;12.164;2023-10-08T12:26:46;13.00;90.37
68248;SHT30;55064;49.636;12.164;2023-10-08T12:29:12;13.00;90.28
68248;SHT30;55064;49.636;12.164;2023-10-08T12:31:40;13.13;90.06
68248;SHT30;55064;49.636;12.164;2023-10-08T12:34:06;13.31;90.38
68248;SHT30;55064;49.636;12.164;2023-10-08T12:39:55;13.69;89.14
68248;SHT30;55064;49.636;12.164;2023-10-08T12:42:45;13.79;89.10
68248;SHT30;55064;49.636;12.164;2023-10-08T12:45:21;13.71;89.21
68248;SHT30;55064;49.636;12.164;2023-10-08T12:47:54;13.79;88.78
68248;SHT30;55064;49.636;12.164;2023-10-08T12:50:35;13.74;88.92
68248;SHT30;55064;49.636;12.164;2023-10-08T12:53:35;13.82;87.42
68248;SHT30;55064;49.636;12.164;2023-10-08T12:59:26;13.71;88.14
68248;SHT30;55064;49.636;12.164;2023-10-08T13:05:22;13.58;88.13
68248;SHT30;55064;49.636;12.164;2023-10-08T13:08:28;13.51;88.43
68248;SHT30;55064;49.636;12.164;2023-10-08T13:14:22;13.53;88.62
68248;SHT30;55064;49.636;12.164;2023-10-08T13:16:49;13.38;89.00
68248;SHT30;55064;49.636;12.164;2023-10-08T13:19:21;13.41;88.73
68248;SHT30;55064;49.636;12.164;2023-10-08T13:21:49;13.44;88.68
68248;SHT30;55064;49.636;12.164;2023-10-08T13:24:22;13.50;88.62
68248;SHT30;55064;49.636;12.164;2023-10-08T13:26:49;13.45;88.25
68248;SHT30;55064;49.636;12.164;2023-10-08T13:29:21;13.45;88.68
68248;SHT30;55064;49.636;12.164;2023-10-08T13:31:46;13.47;88.64
68248;SHT30;55064;49.636;12.164;2023-10-08T13:34:19;13.50;88.38
68248;SHT30;55064;49.636;12.164;2023-10-08T13:36:47;13.53;88.83
68248;SHT30;55064;49.636;12.164;2023-10-08T13:39:14;13.48;88.97
68248;SHT30;55064;49.636;12.164;2023-10-08T13:41:46;13.43;89.07
68248;SHT30;55064;49.636;12.164;2023-10-08T13:44:14;13.48;88.73
68248;SHT30;55064;49.636;12.164;2023-10-08T13:46:41;13.53;88.76
68248;SHT30;55064;49.636;12.164;2023-10-08T13:49:13;13.54;88.28
68248;SHT30;55064;49.636;12.164;2023-10-08T13:51:41;13.51;89.06
68248;SHT30;55064;49.636;12.164;2023-10-08T13:54:11;13.45;89.29
68248;SHT30;55064;49.636;12.164;2023-10-08T14:00:05;13.48;88.88
68248;SHT30;55064;49.636;12.164;2023-10-08T14:03:02;13.44;89.09
68248;SHT30;55064;49.636;12.164;2023-10-08T14:08:54;13.38;88.29
68248;SHT30;55064;49.636;12.164;2023-10-08T14:14:42;13.53;86.99
68248;SHT30;55064;49.636;12.164;2023-10-08T14:17:30;13.55;87.46
68248;SHT30;55064;49.636;12.164;2023-10-08T14:23:23;13.64;86.30
68248;SHT30;55064;49.636;12.164;2023-10-08T14:29:20;13.45;86.30
68248;SHT30;55064;49.636;12.164;2023-10-08T14:31:54;13.43;86.66
68248;SHT30;55064;49.636;12.164;2023-10-08T14:34:37;13.47;86.72
68248;SHT30;55064;49.636;12.164;2023-10-08T14:37:13;13.47;86.39
68248;SHT30;55064;49.636;12.164;2023-10-08T14:40:17;13.40;86.20
68248;SHT30;55064;49.636;12.164;2023-10-08T14:43:21;13.40;85.92
68248;SHT30;55064;49.636;12.164;2023-10-08T14:45:51;13.50;85.29
68248;SHT30;55064;49.636;12.164;2023-10-08T14:48:18;13.53;85.18
68248;SHT30;55064;49.636;12.164;2023-10-08T14:50:43;13.48;85.34
68248;SHT30;55064;49.636;12.164;2023-10-08T14:53:09;13.51;85.67
68248;SHT30;55064;49.636;12.164;2023-10-08T14:55:37;13.50;85.57
68248;SHT30;55064;49.636;12.164;2023-10-08T14:58:06;13.59;84.38
68248;SHT30;55064;49.636;12.164;2023-10-08T15:00:43;13.51;84.79
68248;SHT30;55064;49.636;12.164;2023-10-08T15:03:22;13.48;84.50
68248;SHT30;55064;49.636;12.164;2023-10-08T15:06:04;13.44;84.63
68248;SHT30;55064;49.636;12.164;2023-10-08T15:08:33;13.48;83.92
68248;SHT30;55064;49.636;12.164;2023-10-08T15:10:58;13.47;84.20
68248;SHT30;55064;49.636;12.164;2023-10-08T15:13:28;13.44;84.31
68248;SHT30;55064;49.636;12.164;2023-10-08T15:15:55;13.43;84.66
68248;SHT30;55064;49.636;12.164;2023-10-08T15:18:22;13.43;84.95
68248;SHT30;55064;49.636;12.164;2023-10-08T15:20:48;13.41;85.24
68248;SHT30;55064;49.636;12.164;2023-10-08T15:23:14;13.37;85.33
68248;SHT30;55064;49.636;12.164;2023-10-08T15:25:40;13.40;84.63
68248;SHT30;55064;49.636;12.164;2023-10-08T15:34:29;13.50;84.47
68248;SHT30;55064;49.636;12.164;2023-10-08T15:36:55;13.34;84.44
68248;SHT30;55064;49.636;12.164;2023-10-08T15:42:46;13.40;84.98
68248;SHT30;55064;49.636;12.164;2023-10-08T15:45:15;13.38;84.84
68248;SHT30;55064;49.636;12.164;2023-10-08T15:47:52;13.41;84.78
68248;SHT30;55064;49.636;12.164;2023-10-08T15:50:36;13.43;84.79
68248;SHT30;55064;49.636;12.164;2023-10-08T15:53:15;13.48;84.69
68248;SHT30;55064;49.636;12.164;2023-10-08T15:55:40;13.48;84.77
68248;SHT30;55064;49.636;12.164;2023-10-08T15:58:07;13.48;84.80
68248;SHT30;55064;49.636;12.164;2023-10-08T16:00:35;13.47;85.06
68248;SHT30;55064;49.636;12.164;2023-10-08T16:03:00;13.44;85.09
68248;SHT30;55064;49.636;12.164;2023-10-08T16:05:55;13.38;85.64
68248;SHT30;55064;49.636;12.164;2023-10-08T16:08:28;13.40;85.36
68248;SHT30;55064;49.636;12.164;2023-10-08T16:11:04;13.27;85.82
68248;SHT30;55064;49.636;12.164;2023-10-08T16:13:33;13.28;85.70
68248;SHT30;55064;49.636;12.164;2023-10-08T16:15:58;13.28;85.71
68248;SHT30;55064;49.636;12.164;2023-10-08T16:18:26;13.36;85.85
68248;SHT30;55064;49.636;12.164;2023-10-08T16:20:53;13.34;85.76
68248;SHT30;55064;49.636;12.164;2023-10-08T16:23:19;13.31;85.56
68248;SHT30;55064;49.636;12.164;2023-10-08T16:25:49;13.33;85.65
68248;SHT30;55064;49.636;12.164;2023-10-08T16:28:19;13.31;85.78
68248;SHT30;55064;49.636;12.164;2023-10-08T16:30:45;13.31;85.80
68248;SHT30;55064;49.636;12.164;2023-10-08T16:33:17;13.34;85.72
68248;SHT30;55064;49.636;12.164;2023-10-08T16:35:45;13.34;85.83
68248;SHT30;55064;49.636;12.164;2023-10-08T16:38:18;13.33;85.89
68248;SHT30;55064;49.636;12.164;2023-10-08T16:40:44;13.31;86.01
68248;SHT30;55064;49.636;12.164;2023-10-08T16:43:09;13.30;85.95
68248;SHT30;55064;49.636;12.164;2023-10-08T16:45:45;13.30;85.90
68248;SHT30;55064;49.636;12.164;2023-10-08T16:48:12;13.31;85.79
68248;SHT30;55064;49.636;12.164;2023-10-08T16:50:42;13.28;86.04
68248;SHT30;55064;49.636;12.164;2023-10-08T16:53:07;13.30;85.81
68248;SHT30;55064;49.636;12.164;2023-10-08T16:56:00;13.33;85.54
68248;SHT30;55064;49.636;12.164;2023-10-08T17:05:11;13.10;86.18
68248;SHT30;55064;49.636;12.164;2023-10-08T17:07:41;13.06;86.37
68248;SHT30;55064;49.636;12.164;2023-10-08T17:10:09;13.09;86.31
68248;SHT30;55064;49.636;12.164;2023-10-08T17:12:34;13.09;86.09
68248;SHT30;55064;49.636;12.164;2023-10-08T17:15:00;13.13;86.08
68248;SHT30;55064;49.636;12.164;2023-10-08T17:17:32;13.16;86.13
68248;SHT30;55064;49.636;12.164;2023-10-08T17:33:43;13.17;86.32
68248;SHT30;55064;49.636;12.164;2023-10-08T17:36:14;13.19;86.18
68248;SHT30;55064;49.636;12.164;2023-10-08T17:42:00;13.11;86.60
68248;SHT30;55064;49.636;12.164;2023-10-08T17:59:00;12.89;87.88
68248;SHT30;55064;49.636;12.164;2023-10-08T18:01:59;12.83;88.43
68248;SHT30;55064;49.636;12.164;2023-10-08T18:04:45;12.85;88.26
68248;SHT30;55064;49.636;12.164;2023-10-08T18:07:20;12.85;88.11
68248;SHT30;55064;49.636;12.164;2023-10-08T18:30:48;12.78;88.42
68248;SHT30;55064;49.636;12.164;2023-10-08T18:33:44;12.75;88.60
68248;SHT30;55064;49.636;12.164;2023-10-08T18:36:15;12.76;88.56
68248;SHT30;55064;49.636;12.164;2023-10-08T18:38:53;12.72;88.93
68248;SHT30;55064;49.636;12.164;2023-10-08T18:41:19;12.65;89.34
68248;SHT30;55064;49.636;12.164;2023-10-08T18:43:48;12.62;89.20
68248;SHT30;55064;49.636;12.164;2023-10-08T18:46:18;12.68;89.13
68248;SHT30;55064;49.636;12.164;2023-10-08T18:48:46;12.79;88.99
68248;SHT30;55064;49.636;12.164;2023-10-08T18:51:24;12.78;88.68
68248;SHT30;55064;49.636;12.164;2023-10-08T18:58:05;12.76;88.90
68248;SHT30;55064;49.636;12.164;2023-10-08T19:10:24;12.68;89.37
68248;SHT30;55064;49.636;12.164;2023-10-08T19:13:00;12.72;89.26
68248;SHT30;55064;49.636;12.164;2023-10-08T19:26:09;12.73;89.21
68248;SHT30;55064;49.636;12.164;2023-10-08T19:32:33;12.79;89.14
68248;SHT30;55064;49.636;12.164;2023-10-08T19:35:51;12.76;88.69
68248;SHT30;55064;49.636;12.164;2023-10-08T19:38:18;12.71;88.90
68248;SHT30;55064;49.636;12.164;2023-10-08T19:44:44;12.59;89.60
68248;SHT30;55064;49.636;12.164;2023-10-08T19:51:30;12.61;89.50
68248;SHT30;55064;49.636;12.164;2023-10-08T19:57:34;12.64;89.35
68248;SHT30;55064;49.636;12.164;2023-10-08T20:14:40;12.54;89.88
68248;SHT30;55064;49.636;12.164;2023-10-08T20:20:17;12.58;89.65
68248;SHT30;55064;49.636;12.164;2023-10-08T20:22:51;12.59;89.52
68248;SHT30;55064;49.636;12.164;2023-10-08T20:25:21;12.55;89.75
68248;SHT30;55064;49.636;12.164;2023-10-08T20:27:53;12.54;89.81
68248;SHT30;55064;49.636;12.164;2023-10-08T20:30:43;12.49;90.50
68248;SHT30;55064;49.636;12.164;2023-10-08T20:36:31;12.54;91.04
68248;SHT30;55064;49.636;12.164;2023-10-08T20:42:18;12.51;91.13
68248;SHT30;55064;49.636;12.164;2023-10-08T20:44:46;12.52;91.07
68248;SHT30;55064;49.636;12.164;2023-10-08T20:47:46;12.49;91.28
68248;SHT30;55064;49.636;12.164;2023-10-08T20:50:13;12.49;91.44
68248;SHT30;55064;49.636;12.164;2023-10-08T20:56:06;12.51;91.35
68248;SHT30;55064;49.636;12.164;2023-10-08T21:01:53;12.54;91.28
68248;SHT30;55064;49.636;12.164;2023-10-08T21:04:40;12.49;91.03
68248;SHT30;55064;49.636;12.164;2023-10-08T21:07:34;12.55;91.24
68248;SHT30;55064;49.636;12.164;2023-10-08T21:13:23;12.48;91.58
68248;SHT30;55064;49.636;12.164;2023-10-08T21:15:51;12.41;91.88
68248;SHT30;55064;49.636;12.164;2023-10-08T21:18:17;12.42;91.65
68248;SHT30;55064;49.636;12.164;2023-10-08T21:21:03;12.38;91.85
68248;SHT30;55064;49.636;12.164;2023-10-08T21:30:13;12.30;92.36
68248;SHT30;55064;49.636;12.164;2023-10-08T21:32:43;12.28;92.45
68248;SHT30;55064;49.636;12.164;2023-10-08T21:38:49;12.30;92.21
68248;SHT30;55064;49.636;12.164;2023-10-08T21:44:37;12.28;92.61
68248;SHT30;55064;49.636;12.164;2023-10-08T21:47:24;12.26;92.55
68248;SHT30;55064;49.636;12.164;2023-10-08T21:59:54;12.28;92.47
68248;SHT30;55064;49.636;12.164;2023-10-08T22:05:42;12.27;92.71
68248;SHT30;55064;49.636;12.164;2023-10-08T22:08:11;12.27;92.72
68248;SHT30;55064;49.636;12.164;2023-10-08T22:13:59;12.24;92.55
68248;SHT30;55064;49.636;12.164;2023-10-08T22:16:44;12.24;92.77
68248;SHT30;55064;49.636;12.164;2023-10-08T22:19:25;12.21;93.10
68248;SHT30;55064;49.636;12.164;2023-10-08T22:28:53;12.20;93.14
68248;SHT30;55064;49.636;12.164;2023-10-08T22:41:19;12.14;93.43
68248;SHT30;55064;49.636;12.164;2023-10-08T22:51:05;12.24;93.28
68248;SHT30;55064;49.636;12.164;2023-10-08T22:57:26;12.12;93.74
68248;SHT30;55064;49.636;12.164;2023-10-08T22:59:59;12.06;93.61
68248;SHT30;55064;49.636;12.164;2023-10-08T23:02:53;12.13;93.67
68248;SHT30;55064;49.636;12.164;2023-10-08T23:08:45;12.03;93.89
68248;SHT30;55064;49.636;12.164;2023-10-08T23:11:20;12.07;93.73
68248;SHT30;55064;49.636;12.164;2023-10-08T23:13:52;12.03;93.64
68248;SHT30;55064;49.636;12.164;2023-10-08T23:23:22;11.97;93.48
68248;SHT30;55064;49.636;12.164;2023-10-08T23:25:49;11.96;93.14
68248;SHT30;55064;49.636;12.164;2023-10-08T23:28:16;11.96;93.36
68248;SHT30;55064;49.636;12.164;2023-10-08T23:34:03;11.91;93.16
68248;SHT30;55064;49.636;12.164;2023-10-08T23:36:39;11.91;93.15
68248;SHT30;55064;49.636;12.164;2023-10-08T23:42:11;11.86;93.42
68248;SHT30;55064;49.636;12.164;2023-10-08T23:45:07;11.86;93.49
68248;SHT30;55064;49.636;12.164;2023-10-08T23:48:00;11.86;93.21
68248;SHT30;55064;49.636;12.164;2023-10-08T23:51:04;11.86;93.37
68248;SHT30;55064;49.636;12.164;2023-10-08T23:56:55;11.86;93.11
68248;SHT30;55064;49.636;12.164;2023-10-08T23:59:44;11.86;93.07
